Time;durP1;ratioP1;P1;durP2;ratioP2;P2;SDS_P1;SDS_P2;PMS_P1;PMS_P2;Temp;Humidity;BMP_temperature;BMP_pressure;BME280_temperature;BME280_humidity;BME280_pressure;Samples;Min_cycle;Max_cycle;Signal;HPM_P1;HPM_P2
2022/06/08 00:01:20;;;;;;;24.10;21.63;;;15.70;99.90;;;;;;5028529;28;20470;-55
2022/06/08 00:03:51;;;;;;;25.40;22.57;;;15.60;99.90;;;;;;5039836;28;20463;-57
2022/06/08 00:06:18;;;;;;;24.40;22.00;;;15.70;99.90;;;;;;5025173;28;20496;-56
2022/06/08 00:08:46;;;;;;;26.00;20.60;;;15.60;99.90;;;;;;5021583;28;20471;-53
2022/06/08 00:11:16;;;;;;;23.57;21.17;;;15.60;99.90;;;;;;5020775;28;20506;-56
2022/06/08 00:13:44;;;;;;;24.80;22.47;;;15.60;99.90;;;;;;5027458;28;20481;-54
2022/06/08 00:16:13;;;;;;;25.40;22.90;;;15.60;99.90;;;;;;5030211;28;20467;-56
2022/06/08 00:18:43;;;;;;;25.77;23.10;;;15.60;99.90;;;;;;5028600;28;20522;-55
2022/06/08 00:21:11;;;;;;;26.13;23.47;;;15.60;99.90;;;;;;5019195;28;20471;-55
2022/06/08 00:23:40;;;;;;;25.20;22.77;;;15.60;99.90;;;;;;5038429;28;20755;-56
2022/06/08 00:26:07;;;;;;;24.60;22.10;;;15.60;99.90;;;;;;5034222;28;20488;-56
2022/06/08 00:28:35;;;;;;;24.23;22.03;;;15.60;99.90;;;;;;5021771;28;20471;-56
2022/06/08 00:31:03;;;;;;;25.60;23.00;;;15.60;99.90;;;;;;5029416;28;20771;-57
2022/06/08 00:33:33;;;;;;;27.13;24.23;;;15.60;99.90;;;;;;5029106;28;20601;-56
2022/06/08 00:36:02;;;;;;;26.40;23.80;;;15.60;99.90;;;;;;5039072;28;20915;-55
2022/06/08 00:38:29;;;;;;;26.50;23.87;;;15.60;99.90;;;;;;5019122;28;20468;-56
2022/06/08 00:41:09;;;;;;;26.70;24.03;;;15.50;99.90;;;;;;5019580;28;20468;-57
2022/06/08 00:43:36;;;;;;;27.97;25.33;;;15.50;99.90;;;;;;5019122;28;20468;-57
2022/06/08 00:46:09;;;;;;;27.27;24.67;;;15.50;99.90;;;;;;5032859;28;20578;-57
2022/06/08 00:48:41;;;;;;;28.07;25.17;;;15.40;99.90;;;;;;5022137;28;20967;-57
2022/06/08 00:51:10;;;;;;;27.00;24.50;;;15.40;99.90;;;;;;5037154;28;20757;-57
2022/06/08 00:53:43;;;;;;;27.10;24.60;;;15.40;99.90;;;;;;5026758;28;20467;-56
2022/06/08 00:56:18;;;;;;;26.57;24.07;;;15.30;99.90;;;;;;5038541;28;20896;-57
2022/06/08 00:58:48;;;;;;;26.60;24.10;;;15.20;99.90;;;;;;5023411;28;20468;-57
2022/06/08 01:01:16;;;;;;;26.60;24.00;;;15.10;99.90;;;;;;5019673;28;20468;-57
2022/06/08 01:03:43;;;;;;;27.37;24.77;;;15.20;99.90;;;;;;5018860;28;20470;-56
2022/06/08 01:06:19;;;;;;;27.47;24.73;;;15.10;99.90;;;;;;5024550;28;20494;-56
2022/06/08 01:08:49;;;;;;;26.67;23.97;;;15.10;99.90;;;;;;5027286;28;20488;-57
2022/06/08 01:11:26;;;;;;;28.00;25.00;;;15.10;99.90;;;;;;5032301;28;20442;-52
2022/06/08 01:13:55;;;;;;;28.37;25.50;;;15.30;99.90;;;;;;5023651;28;20806;-56
2022/06/08 01:16:28;;;;;;;25.83;23.27;;;15.40;99.90;;;;;;5038384;28;20466;-55
2022/06/08 01:18:56;;;;;;;26.67;24.10;;;15.30;99.90;;;;;;5029039;28;20879;-57
2022/06/08 01:21:46;;;;;;;26.90;24.40;;;15.30;99.90;;;;;;5019761;28;20897;-57
2022/06/08 01:24:14;;;;;;;26.33;23.70;;;15.30;99.90;;;;;;5022011;28;20503;-57
2022/06/08 01:26:47;;;;;;;26.13;23.67;;;15.30;99.90;;;;;;5027170;28;20469;-54
2022/06/08 01:29:22;;;;;;;26.50;24.00;;;15.30;99.90;;;;;;5030400;28;20510;-57
2022/06/08 01:32:02;;;;;;;25.27;22.87;;;15.20;99.90;;;;;;5035456;28;20466;-55
2022/06/08 01:34:38;;;;;;;25.97;23.43;;;15.20;99.90;;;;;;5027169;28;20491;-56
2022/06/08 01:37:23;;;;;;;25.03;22.53;;;15.20;99.90;;;;;;5037345;28;20462;-56
2022/06/08 01:40:09;;;;;;;24.57;22.23;;;15.20;99.90;;;;;;5029131;28;20472;-57
2022/06/08 01:43:07;;;;;;;23.17;20.93;;;15.30;99.90;;;;;;5018060;28;20467;-57
2022/06/08 01:45:46;;;;;;;26.30;23.60;;;15.30;99.90;;;;;;5037403;28;20491;-57
2022/06/08 01:48:36;;;;;;;26.70;24.10;;;15.30;99.90;;;;;;5037337;28;20467;-57
2022/06/08 01:51:18;;;;;;;25.33;22.83;;;15.20;99.90;;;;;;5022434;28;20496;-55
2022/06/08 01:53:54;;;;;;;25.77;22.90;;;15.20;99.90;;;;;;5036923;28;20463;-55
2022/06/08 01:56:28;;;;;;;25.70;23.30;;;15.30;99.90;;;;;;5026330;28;20459;-56
2022/06/08 01:59:05;;;;;;;26.57;24.00;;;15.30;99.90;;;;;;5036992;28;20919;-57
2022/06/08 02:01:42;;;;;;;26.40;23.80;;;15.30;99.90;;;;;;5022403;28;20468;-56
2022/06/08 02:04:20;;;;;;;26.00;23.40;;;15.30;99.90;;;;;;5022478;28;20875;-55
2022/06/08 02:06:53;;;;;;;25.73;23.10;;;15.20;99.90;;;;;;4997126;28;20493;-57
2022/06/08 02:09:30;;;;;;;22.90;20.70;;;15.30;99.90;;;;;;5022900;28;20521;-57
2022/06/08 02:12:02;;;;;;;23.43;21.20;;;15.20;99.90;;;;;;5022072;28;20442;-55
2022/06/08 02:14:36;;;;;;;24.23;21.83;;;15.20;99.90;;;;;;5017415;28;20900;-57
2022/06/08 02:17:08;;;;;;;24.87;22.47;;;15.10;99.90;;;;;;5010123;28;20455;-57
2022/06/08 02:19:39;;;;;;;24.80;22.40;;;15.20;99.90;;;;;;5036800;28;20474;-56
2022/06/08 02:22:11;;;;;;;22.47;20.37;;;15.10;99.90;;;;;;5025247;28;20471;-57
2022/06/08 02:24:47;;;;;;;24.47;21.97;;;15.00;99.90;;;;;;5017942;28;20761;-55
2022/06/08 02:27:20;;;;;;;23.10;20.90;;;15.00;99.90;;;;;;5021120;28;20553;-56
2022/06/08 02:30:00;;;;;;;24.30;21.90;;;14.90;99.90;;;;;;5001307;28;20461;-56
2022/06/08 02:35:25;;;;;;;23.30;21.10;;;14.80;99.90;;;;;;5040224;28;20572;-54
2022/06/08 02:37:59;;;;;;;22.20;19.93;;;14.80;99.90;;;;;;5020955;28;20767;-56
2022/06/08 02:40:32;;;;;;;22.13;19.90;;;14.80;99.90;;;;;;5037715;28;20526;-57
2022/06/08 02:43:05;;;;;;;23.27;21.07;;;14.80;99.90;;;;;;5030690;28;20471;-56
2022/06/08 02:45:38;;;;;;;21.40;19.20;;;14.70;99.90;;;;;;5025113;28;20488;-57
2022/06/08 02:48:10;;;;;;;21.83;19.73;;;14.70;99.90;;;;;;5024508;28;20594;-56
2022/06/08 02:50:48;;;;;;;22.37;20.07;;;14.70;99.90;;;;;;5021396;28;20495;-57
2022/06/08 02:53:42;;;;;;;21.50;19.30;;;14.60;99.90;;;;;;5019855;28;20512;-57
2022/06/08 02:56:21;;;;;;;20.10;18.03;;;14.60;99.90;;;;;;5020626;28;20460;-55
2022/06/08 02:58:57;;;;;;;20.90;19.00;;;14.50;99.90;;;;;;5019450;28;20464;-56
2022/06/08 03:01:32;;;;;;;25.10;18.00;;;14.50;99.90;;;;;;5035266;28;20461;-56
2022/06/08 03:04:05;;;;;;;19.33;16.70;;;14.30;99.90;;;;;;5039669;28;20549;-57
2022/06/08 03:06:36;;;;;;;17.60;15.80;;;14.30;99.90;;;;;;5039797;28;20497;-56
2022/06/08 03:09:07;;;;;;;18.13;16.33;;;14.30;99.90;;;;;;5029613;28;20473;-56
2022/06/08 03:11:41;;;;;;;19.63;16.90;;;14.30;99.90;;;;;;5037341;28;20464;-56
2022/06/08 03:14:11;;;;;;;19.40;17.57;;;14.30;99.90;;;;;;5035613;28;20474;-56
2022/06/08 03:16:51;;;;;;;18.37;16.57;;;14.20;99.90;;;;;;5039779;28;20490;-56
2022/06/08 03:19:18;;;;;;;19.10;17.40;;;14.10;99.90;;;;;;5023597;28;20468;-55
2022/06/08 03:21:46;;;;;;;18.63;16.90;;;14.00;99.90;;;;;;5029502;28;20466;-53
2022/06/08 03:24:13;;;;;;;17.80;15.80;;;13.90;99.90;;;;;;5022512;28;20438;-56
2022/06/08 03:26:44;;;;;;;19.20;16.57;;;13.90;99.90;;;;;;5039749;28;20491;-56
2022/06/08 03:29:11;;;;;;;18.13;15.10;;;13.90;99.90;;;;;;5035446;28;20467;-55
2022/06/08 03:31:41;;;;;;;17.83;15.90;;;13.80;99.90;;;;;;5039936;28;20896;-56
2022/06/08 03:34:09;;;;;;;15.83;14.33;;;13.90;99.90;;;;;;5022603;28;20951;-57
2022/06/08 03:36:36;;;;;;;17.50;15.70;;;14.00;99.90;;;;;;5019564;28;20459;-56
2022/06/08 03:39:04;;;;;;;17.73;15.97;;;14.00;99.90;;;;;;5018577;28;20467;-57
2022/06/08 03:41:34;;;;;;;16.87;15.27;;;14.10;99.90;;;;;;5018526;28;20464;-56
2022/06/08 03:44:06;;;;;;;16.70;14.50;;;14.20;99.90;;;;;;5018441;28;20820;-56
2022/06/08 03:46:38;;;;;;;13.90;12.60;;;14.30;99.90;;;;;;5018782;28;20495;-56
2022/06/08 03:49:07;;;;;;;17.27;12.80;;;14.30;99.90;;;;;;5018348;28;20468;-57
2022/06/08 03:51:38;;;;;;;13.70;12.40;;;14.30;99.90;;;;;;5018452;28;20482;-57
2022/06/08 03:54:10;;;;;;;14.93;13.40;;;14.30;99.90;;;;;;5018953;28;20453;-56
2022/06/08 03:56:40;;;;;;;13.17;12.00;;;14.30;99.90;;;;;;5020157;28;20463;-57
2022/06/08 03:59:09;;;;;;;14.63;13.33;;;14.40;99.90;;;;;;5019151;28;20471;-56
2022/06/08 04:01:37;;;;;;;14.50;13.00;;;14.40;99.90;;;;;;5018597;28;20468;-56
2022/06/08 04:04:05;;;;;;;14.87;13.13;;;14.40;99.90;;;;;;5019097;28;20558;-57
2022/06/08 04:06:34;;;;;;;13.20;11.90;;;14.30;99.90;;;;;;5016949;28;20908;-56
2022/06/08 04:09:01;;;;;;;14.73;12.90;;;14.40;99.90;;;;;;5037896;28;20947;-55
2022/06/08 04:11:28;;;;;;;13.17;11.87;;;14.40;99.90;;;;;;5022967;28;20472;-56
2022/06/08 04:13:55;;;;;;;13.83;12.63;;;14.50;99.90;;;;;;5038625;28;20501;-55
2022/06/08 04:16:24;;;;;;;13.00;11.80;;;14.50;99.90;;;;;;5018826;28;20439;-56
2022/06/08 04:18:51;;;;;;;14.47;13.17;;;14.60;99.90;;;;;;5038888;28;20464;-56
2022/06/08 04:21:18;;;;;;;14.67;13.17;;;14.50;99.90;;;;;;5028132;28;20468;-56
2022/06/08 04:23:47;;;;;;;13.20;12.00;;;14.60;99.90;;;;;;5038361;28;20478;-54
2022/06/08 04:26:16;;;;;;;12.73;11.43;;;14.60;99.90;;;;;;5023743;28;20466;-56
2022/06/08 04:28:45;;;;;;;14.63;12.40;;;14.60;99.90;;;;;;5018596;28;20475;-57
2022/06/08 04:31:13;;;;;;;13.93;12.43;;;14.60;99.90;;;;;;5023521;28;20598;-56
2022/06/08 04:33:41;;;;;;;13.10;11.80;;;14.60;99.90;;;;;;5038291;28;20477;-57
2022/06/08 04:36:09;;;;;;;15.90;12.03;;;14.60;99.90;;;;;;5019840;28;20826;-57
2022/06/08 04:38:36;;;;;;;14.23;11.80;;;14.60;99.90;;;;;;5038634;28;20494;-56
2022/06/08 04:41:04;;;;;;;12.93;10.33;;;14.60;99.90;;;;;;5029834;28;20439;-56
2022/06/08 04:43:31;;;;;;;11.30;10.20;;;14.70;99.90;;;;;;5035332;28;20791;-54
2022/06/08 04:45:58;;;;;;;10.97;9.70;;;14.70;99.90;;;;;;5020381;28;20492;-56
2022/06/08 04:48:26;;;;;;;12.40;10.77;;;14.70;99.90;;;;;;5036336;28;20896;-56
2022/06/08 04:50:58;;;;;;;9.97;8.93;;;14.70;99.90;;;;;;5033178;28;20472;-56
2022/06/08 04:53:25;;;;;;;9.87;8.70;;;14.80;99.90;;;;;;5037201;28;20466;-55
2022/06/08 04:55:52;;;;;;;11.27;9.37;;;14.80;99.90;;;;;;5029247;28;20471;-56
2022/06/08 04:58:20;;;;;;;8.80;8.00;;;14.90;99.90;;;;;;5037472;28;20740;-56
2022/06/08 05:00:48;;;;;;;8.93;8.00;;;14.80;99.90;;;;;;5037206;28;20447;-56
2022/06/08 05:03:15;;;;;;;9.13;8.23;;;14.90;99.90;;;;;;5019002;28;20889;-56
2022/06/08 05:05:46;;;;;;;8.27;7.47;;;15.00;99.90;;;;;;5034098;28;20443;-54
2022/06/08 05:08:17;;;;;;;11.67;7.27;;;15.10;99.90;;;;;;5037992;28;20463;-57
2022/06/08 05:10:45;;;;;;;7.47;6.77;;;15.30;99.90;;;;;;5036524;28;20888;-56
2022/06/08 05:13:13;;;;;;;7.77;6.67;;;15.40;99.90;;;;;;5020936;28;20468;-55
2022/06/08 05:15:46;;;;;;;8.80;6.00;;;15.50;99.90;;;;;;5017444;28;20504;-57
2022/06/08 05:18:18;;;;;;;5.73;5.17;;;15.50;99.90;;;;;;5016672;28;20472;-57
2022/06/08 05:20:46;;;;;;;6.23;5.63;;;15.70;99.90;;;;;;5017157;28;20482;-57
2022/06/08 05:23:17;;;;;;;6.40;5.33;;;15.80;99.90;;;;;;5017083;28;20471;-57
2022/06/08 05:25:47;;;;;;;6.03;5.43;;;15.80;99.90;;;;;;5018312;28;20460;-56
2022/06/08 05:28:15;;;;;;;6.10;4.53;;;15.90;99.90;;;;;;5017830;28;20894;-56
2022/06/08 05:30:44;;;;;;;4.70;4.30;;;16.00;99.90;;;;;;5016571;28;20901;-57
2022/06/08 05:33:12;;;;;;;5.20;4.70;;;16.00;99.90;;;;;;5018061;28;20467;-56
2022/06/08 05:35:44;;;;;;;6.17;4.83;;;16.00;99.90;;;;;;5036204;28;20491;-55
2022/06/08 05:38:11;;;;;;;4.80;4.40;;;16.10;99.90;;;;;;5021843;28;20799;-56
2022/06/08 05:40:45;;;;;;;4.93;4.07;;;16.20;99.90;;;;;;5016390;28;20831;-61
2022/06/08 05:43:15;;;;;;;4.43;4.03;;;16.30;99.90;;;;;;5015210;28;20959;-61
2022/06/08 05:45:42;;;;;;;4.07;3.57;;;16.50;99.90;;;;;;5017744;28;20764;-63
2022/06/08 05:48:10;;;;;;;3.97;3.57;;;16.60;99.90;;;;;;5017700;28;20491;-62
2022/06/08 05:50:42;;;;;;;5.27;3.90;;;16.70;99.90;;;;;;5015026;28;20924;-62
2022/06/08 05:53:21;;;;;;;5.30;3.70;;;16.90;99.90;;;;;;5015598;28;20476;-62
2022/06/08 05:55:50;;;;;;;4.33;3.87;;;17.10;99.90;;;;;;5015773;28;20498;-62
2022/06/08 05:58:17;;;;;;;4.60;3.10;;;17.20;99.90;;;;;;5016897;28;20483;-62
2022/06/08 06:00:46;;;;;;;4.97;4.57;;;17.40;99.90;;;;;;5016849;28;20464;-65
2022/06/08 06:03:17;;;;;;;3.90;3.50;;;17.30;99.90;;;;;;5017171;28;20435;-65
2022/06/08 06:05:50;;;;;;;3.97;3.60;;;17.40;99.90;;;;;;5016782;28;20490;-64
2022/06/08 06:08:18;;;;;;;3.20;2.90;;;17.50;99.90;;;;;;5017021;28;20495;-65
2022/06/08 06:10:47;;;;;;;3.90;3.40;;;17.80;99.90;;;;;;5017440;28;20503;-65
2022/06/08 06:13:17;;;;;;;3.90;3.20;;;18.10;99.90;;;;;;5016018;28;20464;-65
2022/06/08 06:15:45;;;;;;;5.60;3.40;;;18.10;1.00;;;;;;5016153;28;20464;-66
2022/06/08 06:18:12;;;;;;;4.23;3.20;;;18.20;1.00;;;;;;5017189;28;20464;-65
2022/06/08 06:20:40;;;;;;;3.27;2.97;;;18.00;65.60;;;;;;5017386;28;20832;-65
2022/06/08 06:23:07;;;;;;;4.53;2.80;;;18.00;99.90;;;;;;5016940;28;20464;-65
2022/06/08 06:25:34;;;;;;;3.40;2.87;;;18.10;99.90;;;;;;5014705;28;20480;-65
2022/06/08 06:31:28;;;;;;;2.93;2.70;;;17.90;1.00;;;;;;5016476;28;20427;-65
2022/06/08 06:33:59;;;;;;;2.60;2.40;;;17.90;32.80;;;;;;5016930;28;20488;-65
2022/06/08 06:36:26;;;;;;;3.03;2.73;;;18.00;82.40;;;;;;5017050;28;20770;-64
2022/06/08 06:38:53;;;;;;;4.47;2.80;;;18.10;35.00;;;;;;5017467;28;20752;-67
2022/06/08 06:41:31;;;;;;;3.00;2.67;;;18.20;12.40;;;;;;5016899;28;20460;-65
2022/06/08 06:43:59;;;;;;;2.63;2.43;;;18.20;3.00;;;;;;5016295;28;20467;-65
2022/06/08 06:46:31;;;;;;;2.40;2.20;;;18.40;14.00;;;;;;5016457;28;20464;-65
2022/06/08 06:48:58;;;;;;;4.73;3.27;;;18.60;1.00;;;;;;5017027;28;20566;-65
2022/06/08 06:51:28;;;;;;;2.70;2.20;;;18.90;1.00;;;;;;5016859;28;20558;-67
2022/06/08 06:53:56;;;;;;;3.20;2.40;;;19.20;1.00;;;;;;5016853;28;20468;-68
2022/06/08 06:56:23;;;;;;;2.77;2.53;;;19.50;1.00;;;;;;5017676;28;20487;-69
2022/06/08 06:58:50;;;;;;;3.00;2.70;;;19.50;1.00;;;;;;5016422;28;20822;-67
2022/06/08 07:01:18;;;;;;;2.90;2.60;;;19.80;1.00;;;;;;5017167;28;20464;-68
2022/06/08 07:03:53;;;;;;;3.60;2.70;;;20.10;1.00;;;;;;5017175;28;20468;-68
2022/06/08 07:06:20;;;;;;;3.13;2.60;;;20.40;1.00;;;;;;5017328;28;20525;-69
2022/06/08 07:08:50;;;;;;;2.10;1.90;;;20.60;1.00;;;;;;5017745;28;20470;-71
2022/06/08 07:11:40;;;;;;;2.47;2.03;;;20.80;1.00;;;;;;5017401;28;20463;-68
2022/06/08 07:14:09;;;;;;;4.00;2.20;;;21.10;1.00;;;;;;5020583;28;20467;-70
2022/06/08 07:16:37;;;;;;;3.27;2.43;;;21.30;1.00;;;;;;5020096;28;20525;-68
2022/06/08 07:19:08;;;;;;;2.33;1.93;;;21.30;1.00;;;;;;5021030;28;20900;-65
2022/06/08 07:21:37;;;;;;;3.20;2.17;;;21.20;1.00;;;;;;5020064;28;20471;-67
2022/06/08 07:24:05;;;;;;;2.57;2.37;;;21.10;1.00;;;;;;5019103;28;20907;-68
2022/06/08 07:26:32;;;;;;;3.17;2.93;;;21.00;1.00;;;;;;5020097;28;20483;-67
2022/06/08 07:28:59;;;;;;;5.00;2.53;;;21.10;1.00;;;;;;5019852;28;20470;-65
2022/06/08 07:31:28;;;;;;;3.37;2.70;;;21.00;1.00;;;;;;5018806;28;20463;-67
2022/06/08 07:33:58;;;;;;;3.23;2.43;;;20.80;1.00;;;;;;5020004;28;20503;-65
2022/06/08 07:36:27;;;;;;;2.70;2.50;;;20.60;99.90;;;;;;5019097;28;20466;-67
2022/06/08 07:38:57;;;;;;;2.47;2.27;;;20.70;1.00;;;;;;5014538;28;20592;-66
2022/06/08 07:41:25;;;;;;;3.00;2.30;;;20.70;1.00;;;;;;5018908;28;20449;-67
2022/06/08 07:43:55;;;;;;;3.70;2.10;;;20.70;99.90;;;;;;5018311;28;20554;-66
2022/06/08 07:46:22;;;;;;;3.13;2.83;;;20.90;1.00;;;;;;5017649;28;20471;-67
2022/06/08 07:51:38;;;;;;;2.37;2.10;;;20.80;1.00;;;;;;5018342;28;20470;-65
2022/06/08 07:54:08;;;;;;;4.03;2.80;;;20.60;99.90;;;;;;5019072;28;20458;-66
2022/06/08 07:56:37;;;;;;;2.30;2.10;;;20.30;1.00;;;;;;5015329;28;20905;-65
2022/06/08 07:59:07;;;;;;;2.73;2.40;;;20.30;1.00;;;;;;5019820;28;20464;-65
2022/06/08 08:01:35;;;;;;;2.80;2.50;;;20.30;1.00;;;;;;5019451;28;20467;-68
2022/06/08 08:04:02;;;;;;;3.30;2.63;;;20.30;1.00;;;;;;5019884;28;20755;-65
2022/06/08 08:06:36;;;;;;;2.37;2.17;;;20.30;99.90;;;;;;5019267;28;20503;-64
2022/06/08 08:09:04;;;;;;;3.33;2.30;;;20.30;99.90;;;;;;5018854;28;20479;-64
2022/06/08 08:11:31;;;;;;;4.63;2.60;;;20.60;99.90;;;;;;5019203;28;20460;-63
2022/06/08 08:13:58;;;;;;;3.13;2.20;;;20.60;99.90;;;;;;5019645;28;20487;-64
2022/06/08 08:16:28;;;;;;;2.83;2.47;;;21.20;99.90;;;;;;5019831;28;20464;-63
2022/06/08 08:18:55;;;;;;;2.87;2.50;;;21.40;99.90;;;;;;5018782;28;20470;-68
2022/06/08 08:21:25;;;;;;;2.27;2.07;;;21.60;99.90;;;;;;5018524;28;20487;-63
2022/06/08 08:23:56;;;;;;;2.60;2.30;;;21.60;99.90;;;;;;5018749;28;20932;-63
2022/06/08 08:26:26;;;;;;;2.10;1.90;;;21.90;99.90;;;;;;5018677;28;20470;-63
2022/06/08 08:28:55;;;;;;;2.10;1.90;;;21.90;99.90;;;;;;5019128;28;21110;-63
2022/06/08 08:31:27;;;;;;;2.63;2.43;;;21.80;99.90;;;;;;5017788;28;20755;-64
2022/06/08 08:33:57;;;;;;;3.90;2.30;;;21.80;99.90;;;;;;5018616;28;20497;-63
2022/06/08 08:36:25;;;;;;;3.57;2.73;;;21.60;99.90;;;;;;5018171;28;20467;-65
2022/06/08 08:38:59;;;;;;;2.53;2.33;;;21.40;99.90;;;;;;5018740;28;20556;-64
2022/06/08 08:44:28;;;;;;;3.83;2.73;;;21.90;99.90;;;;;;5018551;28;20590;-62
2022/06/08 08:47:01;;;;;;;3.67;2.90;;;22.30;99.90;;;;;;5018938;28;20825;-64
2022/06/08 08:49:32;;;;;;;3.80;2.87;;;22.60;99.90;;;;;;5018822;28;20442;-68
2022/06/08 08:52:06;;;;;;;4.80;2.50;;;22.90;99.90;;;;;;5018339;28;20464;-66
2022/06/08 08:54:38;;;;;;;2.60;2.40;;;23.10;99.90;;;;;;5018942;28;20468;-66
2022/06/08 08:57:17;;;;;;;5.70;2.53;;;23.50;99.90;;;;;;5017979;28;20499;-61
2022/06/08 08:59:48;;;;;;;4.80;2.43;;;23.40;99.90;;;;;;5018189;28;20499;-63
2022/06/08 09:03:14;;;;;;;5.67;2.83;;;23.50;99.90;;;;;;5018516;28;20526;-64
2022/06/08 09:05:13;;;;;;;3.37;2.10;;;23.50;99.90;;;;;;5018597;28;20463;-62
2022/06/08 09:07:40;;;;;;;3.83;2.77;;;23.30;99.90;;;;;;5015475;28;20499;-65
2022/06/08 09:10:17;;;;;;;3.83;2.77;;;23.00;99.90;;;;;;5018505;28;20465;-63
2022/06/08 09:12:46;;;;;;;3.83;2.70;;;23.00;99.90;;;;;;5016262;28;20967;-63
2022/06/08 09:15:15;;;;;;;6.30;3.10;;;23.10;99.90;;;;;;5018162;28;20739;-66
2022/06/08 09:17:56;;;;;;;5.10;2.50;;;23.70;99.90;;;;;;5017350;28;20467;-64
2022/06/08 09:20:27;;;;;;;5.10;2.73;;;24.50;99.90;;;;;;5018461;28;20494;-64
2022/06/08 09:22:57;;;;;;;3.33;2.63;;;24.90;99.90;;;;;;5018092;28;20474;-65
2022/06/08 09:25:29;;;;;;;4.50;2.50;;;25.20;99.90;;;;;;5017514;28;20469;-62
2022/06/08 09:27:59;;;;;;;3.50;2.80;;;24.80;99.90;;;;;;5016751;28;20458;-63
2022/06/08 09:30:28;;;;;;;4.57;2.80;;;24.10;99.90;;;;;;5017318;28;20518;-63
2022/06/08 09:32:59;;;;;;;3.50;2.63;;;23.10;99.90;;;;;;5017307;28;20496;-62
2022/06/08 09:35:30;;;;;;;4.10;2.63;;;22.90;99.90;;;;;;5016175;28;20550;-66
2022/06/08 09:38:02;;;;;;;7.03;2.80;;;23.50;99.90;;;;;;5017396;28;20547;-64
2022/06/08 09:40:40;;;;;;;3.10;2.67;;;23.40;99.90;;;;;;5017938;28;20474;-63
2022/06/08 09:43:30;;;;;;;3.00;2.33;;;22.80;99.90;;;;;;5017275;28;20904;-63
2022/06/08 09:46:09;;;;;;;2.57;2.13;;;22.60;99.90;;;;;;5015952;28;20551;-62
2022/06/08 09:51:55;;;;;;;3.63;2.70;;;22.90;99.90;;;;;;5016270;28;20440;-63
2022/06/08 09:54:30;;;;;;;5.07;3.00;;;23.50;99.90;;;;;;5015154;28;20464;-64
2022/06/08 09:57:29;;;;;;;3.23;2.60;;;23.60;99.90;;;;;;5017289;28;20486;-64
2022/06/08 10:00:09;;;;;;;4.63;2.20;;;23.80;99.90;;;;;;5016873;28;20928;-62
2022/06/08 10:02:46;;;;;;;5.83;2.80;;;23.60;99.90;;;;;;5017652;28;20464;-63
2022/06/08 10:05:26;;;;;;;4.30;2.70;;;23.60;99.90;;;;;;5017116;28;20525;-63
2022/06/08 10:08:15;;;;;;;2.87;2.67;;;23.40;99.90;;;;;;5017159;28;20499;-63
2022/06/08 10:10:54;;;;;;;4.43;3.03;;;23.70;99.90;;;;;;5009289;28;20487;-63
2022/06/08 10:13:31;;;;;;;5.33;2.60;;;23.50;99.90;;;;;;5015845;28;20478;-63
2022/06/08 10:16:02;;;;;;;5.60;3.57;;;23.20;99.90;;;;;;5016687;28;20541;-63
2022/06/08 10:18:40;;;;;;;7.40;2.50;;;22.70;99.90;;;;;;5015239;28;20885;-63
2022/06/08 10:21:14;;;;;;;4.33;2.70;;;22.90;99.90;;;;;;5012713;28;20473;-63
2022/06/08 10:23:47;;;;;;;6.23;3.90;;;23.40;99.90;;;;;;5014327;28;20464;-63
2022/06/08 10:26:21;;;;;;;6.73;3.07;;;23.80;99.90;;;;;;5016722;28;20881;-62
2022/06/08 10:28:53;;;;;;;4.60;2.23;;;23.80;99.90;;;;;;5016777;28;20503;-63
2022/06/08 10:31:29;;;;;;;3.50;2.33;;;23.90;99.90;;;;;;5016345;28;20498;-63
2022/06/08 10:34:04;;;;;;;7.13;3.10;;;23.80;99.90;;;;;;5015115;28;20971;-63
2022/06/08 10:36:33;;;;;;;5.00;2.83;;;23.80;99.90;;;;;;5016008;28;20881;-63
2022/06/08 10:39:03;;;;;;;3.50;2.33;;;23.70;99.90;;;;;;5023541;28;20474;-63
2022/06/08 10:44:40;;;;;;;3.50;2.67;;;24.00;99.90;;;;;;5012269;28;20521;-62
2022/06/08 10:47:23;;;;;;;6.93;2.07;;;23.70;99.90;;;;;;5017102;28;20460;-63
2022/06/08 10:49:54;;;;;;;2.60;2.40;;;23.10;99.90;;;;;;5016871;28;20471;-63
2022/06/08 10:52:41;;;;;;;5.50;2.80;;;22.30;99.90;;;;;;5019605;28;20467;-63
2022/06/08 10:55:36;;;;;;;8.03;2.67;;;21.80;99.90;;;;;;5019298;28;20471;-63
2022/06/08 10:58:07;;;;;;;4.80;3.00;;;21.60;99.90;;;;;;5017559;28;20472;-63
2022/06/08 11:01:11;;;;;;;5.30;3.07;;;22.00;99.90;;;;;;5019296;28;20508;-63
2022/06/08 11:03:53;;;;;;;6.47;3.10;;;22.10;99.90;;;;;;4999191;28;20456;-64
2022/06/08 11:06:57;;;;;;;5.80;3.17;;;22.30;99.90;;;;;;5007877;28;20837;-64
2022/06/08 11:09:46;;;;;;;3.83;2.80;;;22.20;99.90;;;;;;5016207;28;20495;-65
2022/06/08 11:12:39;;;;;;;3.77;2.43;;;21.60;99.90;;;;;;5019314;28;20530;-65
2022/06/08 11:15:16;;;;;;;5.03;2.47;;;20.90;99.90;;;;;;5009494;28;20471;-63
2022/06/08 11:17:53;;;;;;;3.50;1.90;;;20.50;99.90;;;;;;5019404;28;20486;-63
2022/06/08 11:20:28;;;;;;;5.30;2.83;;;20.50;99.90;;;;;;5020531;28;20474;-63
2022/06/08 11:23:02;;;;;;;5.70;3.17;;;20.40;99.90;;;;;;5019662;28;20463;-64
2022/06/08 11:25:34;;;;;;;3.90;2.60;;;20.20;99.90;;;;;;5020303;28;20467;-63
2022/06/08 11:28:34;;;;;;;5.77;2.97;;;20.00;99.90;;;;;;5020102;28;20498;-63
2022/06/08 11:31:07;;;;;;;3.87;2.83;;;19.90;99.90;;;;;;5009320;28;20479;-63
2022/06/08 11:34:13;;;;;;;4.40;2.50;;;20.00;99.90;;;;;;5019277;28;20463;-63
2022/06/08 11:37:03;;;;;;;5.83;3.23;;;19.80;99.90;;;;;;5012773;28;20475;-64
2022/06/08 11:39:37;;;;;;;4.63;3.00;;;19.70;99.90;;;;;;5018415;28;20455;-63
2022/06/08 11:42:22;;;;;;;4.53;3.27;;;19.70;99.90;;;;;;5020012;28;20753;-64
2022/06/08 11:44:57;;;;;;;6.93;3.20;;;19.70;99.90;;;;;;5018981;28;20749;-64
2022/06/08 11:47:32;;;;;;;4.80;3.37;;;19.80;99.90;;;;;;5019236;28;20477;-64
2022/06/08 11:50:01;;;;;;;6.10;3.40;;;19.80;99.90;;;;;;5019598;28;20495;-64
2022/06/08 11:52:36;;;;;;;5.50;3.90;;;19.80;1.00;;;;;;5020203;28;20894;-64
2022/06/08 11:55:20;;;;;;;7.27;4.23;;;19.60;1.00;;;;;;5019430;28;20774;-61
2022/06/08 11:57:52;;;;;;;3.77;3.23;;;19.20;1.00;;;;;;5018758;28;20464;-62
2022/06/08 12:00:24;;;;;;;4.93;3.40;;;18.90;1.00;;;;;;5000005;28;20465;-64
2022/06/08 12:02:55;;;;;;;6.70;3.97;;;18.50;1.00;;;;;;4999836;28;20882;-66
2022/06/08 12:05:28;;;;;;;7.70;4.20;;;18.20;99.90;;;;;;5012516;28;20460;-63
2022/06/08 12:08:03;;;;;;;6.60;3.80;;;17.70;99.90;;;;;;5018942;28;20735;-63
2022/06/08 12:10:34;;;;;;;8.03;3.97;;;17.20;99.90;;;;;;5012253;28;20649;-62
2022/06/08 12:13:02;;;;;;;5.90;4.20;;;16.90;99.90;;;;;;5013928;28;20526;-68
2022/06/08 12:15:46;;;;;;;5.10;4.13;;;16.70;1.00;;;;;;5016763;28;20460;-63
2022/06/08 12:18:41;;;;;;;5.80;4.07;;;16.80;99.90;;;;;;5015843;28;20758;-63
2022/06/08 12:21:30;;;;;;;10.67;4.20;;;16.70;1.00;;;;;;5016027;28;20457;-67
2022/06/08 12:24:07;;;;;;;6.20;3.43;;;16.80;1.00;;;;;;5018836;28;20438;-65
2022/06/08 12:26:45;;;;;;;7.67;4.47;;;16.80;1.00;;;;;;5019391;28;20441;-62
2022/06/08 12:29:28;;;;;;;5.93;4.37;;;16.70;1.00;;;;;;5018872;28;20492;-62
2022/06/08 12:32:17;;;;;;;6.03;3.87;;;16.70;1.00;;;;;;5017357;28;20460;-63
2022/06/08 12:34:46;;;;;;;7.37;4.10;;;16.70;1.00;;;;;;5015375;28;20484;-62
2022/06/08 12:37:35;;;;;;;6.50;3.60;;;16.70;1.00;;;;;;5018791;28;20463;-60
2022/06/08 12:40:23;;;;;;;4.87;3.67;;;16.70;1.00;;;;;;5018830;28;20796;-61
2022/06/08 12:42:56;;;;;;;6.17;4.50;;;16.80;43.50;;;;;;5016426;28;20459;-61
2022/06/08 12:45:30;;;;;;;5.80;3.30;;;17.10;18.40;;;;;;5017127;28;20462;-60
2022/06/08 12:47:58;;;;;;;5.57;3.60;;;17.20;1.00;;;;;;5014827;28;20448;-61
2022/06/08 12:50:28;;;;;;;8.10;4.00;;;17.20;99.90;;;;;;5011294;28;20781;-62
2022/06/08 12:52:56;;;;;;;5.93;3.90;;;17.30;99.90;;;;;;5016054;28;20467;-62
2022/06/08 12:55:27;;;;;;;5.27;3.73;;;17.40;99.90;;;;;;5016495;28;20491;-62
2022/06/08 12:58:00;;;;;;;8.73;3.90;;;17.50;99.90;;;;;;5012896;28;20465;-62
2022/06/08 13:00:30;;;;;;;7.33;3.60;;;17.60;99.90;;;;;;5015110;28;20456;-61
2022/06/08 13:03:02;;;;;;;6.83;4.03;;;17.70;95.10;;;;;;5014939;28;20464;-62
2022/06/08 13:05:32;;;;;;;3.73;3.43;;;17.80;46.00;;;;;;5001645;28;20473;-62
2022/06/08 13:08:01;;;;;;;8.80;3.47;;;18.00;21.00;;;;;;5016266;28;20483;-62
2022/06/08 13:10:37;;;;;;;8.17;4.40;;;18.20;36.90;;;;;;5016284;28;20952;-61
2022/06/08 13:13:09;;;;;;;6.37;3.83;;;18.40;1.00;;;;;;5013281;28;20742;-61
2022/06/08 13:15:45;;;;;;;6.57;3.67;;;18.40;1.00;;;;;;5017390;28;20435;-62
2022/06/08 13:18:17;;;;;;;4.30;3.40;;;18.50;1.00;;;;;;5015850;28;20560;-62
2022/06/08 13:20:47;;;;;;;4.43;2.97;;;18.40;1.00;;;;;;4998081;28;20547;-62
2022/06/08 13:23:14;;;;;;;5.10;3.03;;;18.50;1.00;;;;;;5009309;28;20465;-63
2022/06/08 13:25:45;;;;;;;6.57;3.13;;;18.50;1.00;;;;;;5012653;28;20721;-63
2022/06/08 13:28:18;;;;;;;5.30;3.10;;;18.40;1.00;;;;;;5010042;28;20981;-63